Time;durP1;ratioP1;P1;durP2;ratioP2;P2;SDS_P1;SDS_P2;PMS_P1;PMS_P2;Temp;Humidity;BMP_temperature;BMP_pressure;BME280_temperature;BME280_humidity;BME280_pressure;Samples;Min_cycle;Max_cycle;Signal;HPM_P1;HPM_P2
2023/04/12 00:02:02;;;;;;;;;;;;;;;11.56;100.00;98001.81;4945369;28;19968;-45
2023/04/12 00:04:27;;;;;;;;;;;;;;;12.53;100.00;97992.31;4943875;28;20040;-46
2023/04/12 00:06:53;;;;;;;;;;;;;;;12.54;100.00;97963.81;4945169;28;20064;-46
2023/04/12 00:09:18;;;;;;;;;;;;;;;12.89;100.00;97973.88;4944501;28;19962;-47
2023/04/12 00:11:43;;;;;;;;;;;;;;;12.86;100.00;97955.94;4945221;28;20364;-46
2023/04/12 00:14:09;;;;;;;;;;;;;;;12.13;100.00;97964.38;4945566;28;20201;-46
2023/04/12 00:16:35;;;;;;;;;;;;;;;11.81;100.00;97975.56;4944714;28;20759;-49
2023/04/12 00:19:02;;;;;;;;;;;;;;;11.94;100.00;97955.97;4944935;28;20393;-47
2023/04/12 00:21:27;;;;;;;;;;;;;;;12.31;100.00;97972.81;4945261;28;20595;-46
2023/04/12 00:23:53;;;;;;;;;;;;;;;12.41;100.00;97954.28;4945674;28;19945;-46
2023/04/12 00:26:20;;;;;;;;;;;;;;;12.12;100.00;97952.38;4943051;28;19948;-47
2023/04/12 00:28:45;;;;;;;;;;;;;;;11.88;100.00;97944.25;4945010;28;20446;-46
2023/04/12 00:31:11;;;;;;;;;;;;;;;11.80;100.00;97958.44;4946863;28;20018;-45
2023/04/12 00:33:36;;;;;;;;;;;;;;;12.76;100.00;97941.91;4944158;28;19968;-48
2023/04/12 00:36:01;;;;;;;;;;;;;;;12.50;100.00;97915.84;4943721;28;19957;-47
2023/04/12 00:38:26;;;;;;;;;;;;;;;12.97;100.00;97930.31;4944283;28;20165;-47
2023/04/12 00:40:52;;;;;;;;;;;;;;;12.88;100.00;97910.19;4944755;28;20383;-46
2023/04/12 00:43:17;;;;;;;;;;;;;;;13.27;100.00;97885.47;4944014;28;20401;-47
2023/04/12 00:45:46;;;;;;;;;;;;;;;13.64;100.00;97885.84;4944438;28;19926;-46
2023/04/12 00:48:11;;;;;;;;;;;;;;;13.01;100.00;97888.81;4945724;28;19963;-46
2023/04/12 00:50:36;;;;;;;;;;;;;;;13.58;100.00;97873.28;4944526;28;20313;-47
2023/04/12 00:53:02;;;;;;;;;;;;;;;12.69;100.00;97899.28;4944339;28;19922;-47
2023/04/12 00:55:28;;;;;;;;;;;;;;;13.34;100.00;97886.81;4943361;28;19918;-46
2023/04/12 00:57:53;;;;;;;;;;;;;;;12.21;100.00;97906.34;4944983;28;19941;-48
2023/04/12 01:00:18;;;;;;;;;;;;;;;11.89;100.00;97914.94;4943640;28;19929;-48
2023/04/12 01:02:45;;;;;;;;;;;;;;;13.13;100.00;97893.22;4943123;28;19945;-47
2023/04/12 01:05:13;;;;;;;;;;;;;;;13.32;100.00;97885.22;4943653;28;19921;-46
2023/04/12 01:08:11;;;;;;;;;;;;;;;13.77;100.00;97858.25;4941767;28;20246;-46
2023/04/12 01:10:51;;;;;;;;;;;;;;;12.94;100.00;97885.75;5002827;28;19922;-47
2023/04/12 01:13:38;;;;;;;;;;;;;;;13.01;100.00;97878.47;4943685;28;19925;-45
2023/04/12 01:16:16;;;;;;;;;;;;;;;12.20;100.00;97891.75;4944596;28;19945;-46
2023/04/12 01:18:44;;;;;;;;;;;;;;;12.47;100.00;97885.00;4944415;28;20343;-46
2023/04/12 01:21:12;;;;;;;;;;;;;;;13.16;100.00;97872.38;4943077;28;19917;-46
2023/04/12 01:23:40;;;;;;;;;;;;;;;12.98;100.00;97869.16;4942943;28;19974;-46
2023/04/12 01:26:10;;;;;;;;;;;;;;;13.46;100.00;97837.84;4945298;28;19918;-46
2023/04/12 01:28:37;;;;;;;;;;;;;;;13.66;100.00;97840.00;4942324;28;19937;-45
2023/04/12 01:31:02;;;;;;;;;;;;;;;12.80;100.00;97850.41;4943213;28;19922;-47
2023/04/12 01:33:30;;;;;;;;;;;;;;;13.66;100.00;97824.47;4942939;28;19938;-46
2023/04/12 01:35:56;;;;;;;;;;;;;;;13.62;100.00;97810.06;4943651;28;19953;-46
2023/04/12 01:38:21;;;;;;;;;;;;;;;12.77;100.00;97840.22;4942412;28;20454;-46
2023/04/12 01:40:46;;;;;;;;;;;;;;;12.89;100.00;97839.50;4943981;28;20148;-46
2023/04/12 01:43:12;;;;;;;;;;;;;;;13.04;100.00;97822.22;4944458;28;19922;-46
2023/04/12 01:45:37;;;;;;;;;;;;;;;13.34;100.00;97814.41;4942506;28;19926;-47
2023/04/12 01:48:03;;;;;;;;;;;;;;;13.02;100.00;97823.25;4947610;28;19930;-46
2023/04/12 01:50:31;;;;;;;;;;;;;;;12.21;100.00;97845.22;4944907;28;19922;-46
2023/04/12 01:53:07;;;;;;;;;;;;;;;13.00;100.00;97831.13;4945574;28;19995;-45
2023/04/12 01:55:32;;;;;;;;;;;;;;;12.50;100.00;97848.69;4946476;28;19923;-44
2023/04/12 01:57:57;;;;;;;;;;;;;;;12.31;100.00;97830.03;4945690;28;20294;-44
2023/04/12 02:00:23;;;;;;;;;;;;;;;13.63;100.00;97803.97;4945697;28;20145;-45
2023/04/12 02:02:48;;;;;;;;;;;;;;;13.63;100.00;97803.13;4947996;28;20399;-45
2023/04/12 02:05:14;;;;;;;;;;;;;;;13.80;100.00;97788.19;4942089;28;20270;-46
2023/04/12 02:07:40;;;;;;;;;;;;;;;13.18;100.00;97792.94;4948497;28;20071;-48
2023/04/12 02:10:05;;;;;;;;;;;;;;;13.63;100.00;97793.63;4946541;28;20486;-45
2023/04/12 02:12:30;;;;;;;;;;;;;;;13.17;100.00;97801.66;4946454;28;19974;-46
2023/04/12 02:14:56;;;;;;;;;;;;;;;13.24;100.00;97800.34;4946485;28;19923;-46
2023/04/12 02:17:21;;;;;;;;;;;;;;;12.49;100.00;97826.38;4946155;28;19918;-45
2023/04/12 02:19:46;;;;;;;;;;;;;;;13.33;100.00;97789.44;4948994;28;19986;-45
2023/04/12 02:22:11;;;;;;;;;;;;;;;13.16;100.00;97792.25;4947390;28;19918;-45
2023/04/12 02:24:37;;;;;;;;;;;;;;;12.17;100.00;97828.22;4947698;28;20024;-45
2023/04/12 02:27:02;;;;;;;;;;;;;;;12.55;100.00;97807.94;4946475;28;19945;-45
2023/04/12 02:29:27;;;;;;;;;;;;;;;12.81;100.00;97795.22;4946965;28;19918;-45
2023/04/12 02:31:53;;;;;;;;;;;;;;;11.62;100.00;97813.25;4948093;28;19927;-47
2023/04/12 02:34:18;;;;;;;;;;;;;;;12.89;100.00;97798.16;4948281;28;19991;-45
2023/04/12 02:36:46;;;;;;;;;;;;;;;12.17;100.00;97794.69;4947815;28;20012;-46
2023/04/12 02:39:12;;;;;;;;;;;;;;;11.83;100.00;97795.75;4947347;28;19961;-45
2023/04/12 02:41:38;;;;;;;;;;;;;;;12.08;100.00;97790.06;4946216;28;20268;-46
2023/04/12 02:44:03;;;;;;;;;;;;;;;12.47;100.00;97779.13;4946959;28;20041;-46
2023/04/12 02:46:28;;;;;;;;;;;;;;;12.94;100.00;97754.78;4945552;28;19956;-45
2023/04/12 02:48:53;;;;;;;;;;;;;;;12.17;100.00;97773.22;4946455;28;19926;-45
2023/04/12 02:51:18;;;;;;;;;;;;;;;11.82;100.00;97781.19;4946220;28;19934;-45
2023/04/12 02:53:44;;;;;;;;;;;;;;;11.66;100.00;97784.63;4944713;28;19918;-44
2023/04/12 02:56:09;;;;;;;;;;;;;;;12.02;100.00;97764.59;4946788;28;19933;-47
2023/04/12 02:58:35;;;;;;;;;;;;;;;11.39;100.00;97766.38;4941673;28;19926;-46
2023/04/12 03:01:00;;;;;;;;;;;;;;;11.65;100.00;97770.06;4943992;28;19926;-45
2023/04/12 03:03:27;;;;;;;;;;;;;;;12.26;100.00;97752.03;4945076;28;19922;-45
2023/04/12 03:05:52;;;;;;;;;;;;;;;12.02;100.00;97743.94;4946586;28;19986;-46
2023/04/12 03:08:17;;;;;;;;;;;;;;;11.74;100.00;97753.25;4943976;28;19929;-45
2023/04/12 03:10:43;;;;;;;;;;;;;;;11.52;100.00;97763.94;4943085;28;20378;-46
2023/04/12 03:13:08;;;;;;;;;;;;;;;11.45;100.00;97760.06;4944784;28;20489;-44
2023/04/12 03:15:33;;;;;;;;;;;;;;;12.34;100.00;97744.66;4943541;28;19980;-44
2023/04/12 03:17:58;;;;;;;;;;;;;;;12.46;100.00;97735.34;4945035;28;20134;-46
2023/04/12 03:20:24;;;;;;;;;;;;;;;11.93;100.00;97745.34;4944767;28;20107;-45
2023/04/12 03:22:49;;;;;;;;;;;;;;;12.42;100.00;97706.28;4942760;28;19923;-44
2023/04/12 03:25:16;;;;;;;;;;;;;;;12.25;100.00;97703.91;4943862;28;20367;-46
2023/04/12 03:27:42;;;;;;;;;;;;;;;11.76;100.00;97710.13;4944248;28;19918;-46
2023/04/12 03:30:09;;;;;;;;;;;;;;;11.46;100.00;97726.44;4945122;28;20388;-46
2023/04/12 03:32:34;;;;;;;;;;;;;;;11.13;100.00;97733.44;4945748;28;19995;-44
2023/04/12 03:34:59;;;;;;;;;;;;;;;10.81;100.00;97728.28;4944842;28;20382;-44
2023/04/12 03:37:25;;;;;;;;;;;;;;;11.18;100.00;97732.31;4943000;28;20593;-45
2023/04/12 03:39:50;;;;;;;;;;;;;;;11.37;100.00;97716.63;4943685;28;19968;-45
2023/04/12 03:42:15;;;;;;;;;;;;;;;11.51;100.00;97705.56;4943114;28;19922;-45
2023/04/12 03:44:40;;;;;;;;;;;;;;;12.04;100.00;97716.31;4942348;28;19926;-44
2023/04/12 03:47:06;;;;;;;;;;;;;;;11.75;100.00;97695.59;4943461;28;19927;-44
2023/04/12 03:49:31;;;;;;;;;;;;;;;12.34;100.00;97656.91;4941688;28;20013;-46
2023/04/12 03:51:57;;;;;;;;;;;;;;;11.48;100.00;97677.38;4942459;28;20052;-45
2023/04/12 03:54:23;;;;;;;;;;;;;;;11.24;100.00;97670.13;4943001;28;20311;-44
2023/04/12 03:56:48;;;;;;;;;;;;;;;11.38;100.00;97677.06;4941955;28;19992;-44
2023/04/12 03:59:13;;;;;;;;;;;;;;;11.52;100.00;97655.66;4939795;28;19926;-45
2023/04/12 04:01:40;;;;;;;;;;;;;;;11.88;100.00;97634.66;4945055;28;19922;-44
2023/04/12 04:04:06;;;;;;;;;;;;;;;11.39;100.00;97652.13;4944992;28;20498;-46
2023/04/12 04:06:31;;;;;;;;;;;;;;;11.42;100.00;97632.13;4945644;28;20024;-46
2023/04/12 04:08:57;;;;;;;;;;;;;;;10.86;100.00;97639.56;4941691;28;19954;-44
2023/04/12 04:11:23;;;;;;;;;;;;;;;10.81;100.00;97657.03;4944675;28;20373;-44
2023/04/12 04:13:48;;;;;;;;;;;;;;;10.50;100.00;97654.44;4945833;28;19929;-44
2023/04/12 04:16:14;;;;;;;;;;;;;;;10.61;100.00;97659.84;4944277;28;20383;-45
2023/04/12 04:18:39;;;;;;;;;;;;;;;10.44;100.00;97643.53;4943286;28;20371;-44
2023/04/12 04:21:06;;;;;;;;;;;;;;;10.95;100.00;97665.72;4943765;28;19922;-44
2023/04/12 04:23:37;;;;;;;;;;;;;;;11.36;100.00;97662.59;4943907;28;19923;-44
2023/04/12 04:26:04;;;;;;;;;;;;;;;11.24;100.00;97659.81;4945782;28;19922;-46
2023/04/12 04:28:29;;;;;;;;;;;;;;;10.70;100.00;97643.91;4943561;28;19977;-45
2023/04/12 04:30:55;;;;;;;;;;;;;;;10.83;100.00;97665.50;4945335;28;20383;-45
2023/04/12 04:33:20;;;;;;;;;;;;;;;10.55;100.00;97655.03;4943089;28;20441;-45
2023/04/12 04:35:45;;;;;;;;;;;;;;;10.46;100.00;97658.91;4944554;28;20321;-45
2023/04/12 04:38:10;;;;;;;;;;;;;;;10.51;100.00;97651.78;4942782;28;20172;-45
2023/04/12 04:40:37;;;;;;;;;;;;;;;10.36;100.00;97681.75;4944014;28;19922;-46
2023/04/12 04:43:02;;;;;;;;;;;;;;;11.06;100.00;97671.13;4942829;28;20406;-45
2023/04/12 04:45:27;;;;;;;;;;;;;;;10.42;100.00;97654.84;4940984;28;19927;-45
2023/04/12 04:47:53;;;;;;;;;;;;;;;11.08;100.00;97667.56;4939400;28;19929;-45
2023/04/12 04:50:20;;;;;;;;;;;;;;;10.83;100.00;97675.81;4941512;28;20504;-45
2023/04/12 04:52:47;;;;;;;;;;;;;;;10.80;100.00;97659.69;4941541;28;19922;-45
2023/04/12 04:55:12;;;;;;;;;;;;;;;10.17;100.00;97670.69;4943843;28;20299;-45
2023/04/12 04:57:37;;;;;;;;;;;;;;;11.27;100.00;97669.94;4942061;28;19922;-46
2023/04/12 05:00:10;;;;;;;;;;;;;;;10.85;100.00;97653.34;4944966;28;19918;-45
2023/04/12 05:02:36;;;;;;;;;;;;;;;11.00;100.00;97674.06;4942212;28;19984;-45
2023/04/12 05:05:03;;;;;;;;;;;;;;;11.55;100.00;97660.63;4943573;28;19926;-45
2023/04/12 05:07:28;;;;;;;;;;;;;;;11.27;100.00;97633.03;4943457;28;19922;-45
2023/04/12 05:09:53;;;;;;;;;;;;;;;11.04;100.00;97636.91;4942892;28;19933;-45
2023/04/12 05:12:18;;;;;;;;;;;;;;;10.82;100.00;97639.84;4938315;28;19923;-46
2023/04/12 05:14:43;;;;;;;;;;;;;;;10.87;100.00;97636.06;4942592;28;20342;-45
2023/04/12 05:17:09;;;;;;;;;;;;;;;11.01;100.00;97642.22;4940429;28;19976;-45
2023/04/12 05:19:34;;;;;;;;;;;;;;;11.61;100.00;97615.59;4942774;28;19925;-45
2023/04/12 05:21:59;;;;;;;;;;;;;;;11.29;100.00;97626.88;4946975;28;19988;-46
2023/04/12 05:24:25;;;;;;;;;;;;;;;11.39;100.00;97639.25;4945997;28;19930;-46
2023/04/12 05:26:50;;;;;;;;;;;;;;;10.49;100.00;97639.91;4945349;28;19923;-45
2023/04/12 05:29:15;;;;;;;;;;;;;;;10.93;100.00;97644.41;4944674;28;20021;-45
2023/04/12 05:31:41;;;;;;;;;;;;;;;10.64;100.00;97654.53;4945452;28;19925;-45
2023/04/12 05:34:06;;;;;;;;;;;;;;;10.83;100.00;97680.97;4945268;28;19923;-45
2023/04/12 05:36:32;;;;;;;;;;;;;;;10.92;100.00;97689.09;4945270;28;19944;-45
2023/04/12 05:38:57;;;;;;;;;;;;;;;11.13;100.00;97674.19;4945797;28;19918;-45
2023/04/12 05:41:22;;;;;;;;;;;;;;;11.16;100.00;97650.84;4945640;28;19926;-46
2023/04/12 05:43:47;;;;;;;;;;;;;;;11.09;100.00;97655.50;4945056;28;19976;-45
2023/04/12 05:46:13;;;;;;;;;;;;;;;10.82;100.00;97627.78;4943136;28;19938;-46
2023/04/12 05:48:38;;;;;;;;;;;;;;;11.21;100.00;97618.72;4944565;28;19929;-45
2023/04/12 05:51:04;;;;;;;;;;;;;;;10.16;100.00;97618.41;4946701;28;20303;-46
2023/04/12 05:53:31;;;;;;;;;;;;;;;11.26;100.00;97647.66;4945140;28;19926;-46
2023/04/12 05:55:57;;;;;;;;;;;;;;;10.82;100.00;97625.19;4947495;28;19922;-45
2023/04/12 05:58:22;;;;;;;;;;;;;;;10.94;100.00;97613.38;4944747;28;19953;-45
2023/04/12 06:00:48;;;;;;;;;;;;;;;11.17;100.00;97626.72;4945536;28;19953;-46
2023/04/12 06:03:13;;;;;;;;;;;;;;;11.57;100.00;97624.47;4946550;28;19970;-45
2023/04/12 06:05:38;;;;;;;;;;;;;;;11.17;100.00;97604.38;4942452;28;19937;-45
2023/04/12 06:08:04;;;;;;;;;;;;;;;11.69;100.00;97562.66;4946997;28;19997;-46
2023/04/12 06:10:29;;;;;;;;;;;;;;;11.65;100.00;97561.19;4944125;28;19918;-46
2023/04/12 06:12:55;;;;;;;;;;;;;;;11.47;100.00;97582.91;4945007;28;19949;-46
2023/04/12 06:15:20;;;;;;;;;;;;;;;11.10;100.00;97572.97;4944655;28;20345;-45
2023/04/12 06:17:45;;;;;;;;;;;;;;;11.96;100.00;97556.81;4945373;28;20240;-45
2023/04/12 06:20:11;;;;;;;;;;;;;;;11.03;100.00;97552.81;4945267;28;19966;-45
2023/04/12 06:22:36;;;;;;;;;;;;;;;12.12;100.00;97560.09;4944057;28;19922;-45
2023/04/12 06:25:02;;;;;;;;;;;;;;;10.66;100.00;97549.72;4944434;28;19922;-45
2023/04/12 06:27:27;;;;;;;;;;;;;;;11.05;100.00;97610.22;4943203;28;19925;-45
2023/04/12 06:29:53;;;;;;;;;;;;;;;10.68;100.00;97604.53;4944038;28;19930;-45
2023/04/12 06:32:18;;;;;;;;;;;;;;;11.21;100.00;97641.09;4943468;28;20257;-45
2023/04/12 06:34:43;;;;;;;;;;;;;;;10.64;100.00;97646.81;4943917;28;20426;-46
2023/04/12 06:37:08;;;;;;;;;;;;;;;10.98;100.00;97683.59;4945873;28;20460;-45
2023/04/12 06:39:34;;;;;;;;;;;;;;;10.94;100.00;97682.09;4944298;28;19922;-45
2023/04/12 06:42:00;;;;;;;;;;;;;;;10.75;100.00;97683.09;4944772;28;20181;-45
2023/04/12 06:44:26;;;;;;;;;;;;;;;10.50;100.00;97708.50;4944797;28;19923;-45
2023/04/12 06:46:51;;;;;;;;;;;;;;;11.09;100.00;97737.97;4943349;28;19922;-46
2023/04/12 06:49:17;;;;;;;;;;;;;;;11.17;100.00;97738.34;4944269;28;20401;-45
2023/04/12 06:51:42;;;;;;;;;;;;;;;10.94;100.00;97752.47;4942690;28;19923;-46
2023/04/12 06:54:08;;;;;;;;;;;;;;;11.46;100.00;97770.25;4945695;28;19993;-45
2023/04/12 06:56:33;;;;;;;;;;;;;;;10.76;100.00;97750.88;4943982;28;19926;-45
2023/04/12 06:58:58;;;;;;;;;;;;;;;10.54;100.00;97762.31;4941756;28;19934;-45
2023/04/12 07:01:24;;;;;;;;;;;;;;;11.56;100.00;97791.19;4941346;28;19927;-44
2023/04/12 07:03:49;;;;;;;;;;;;;;;11.20;100.00;97755.38;4945266;28;19927;-45
2023/04/12 07:06:14;;;;;;;;;;;;;;;10.97;100.00;97775.53;4943976;28;19935;-45
2023/04/12 07:08:39;;;;;;;;;;;;;;;10.44;100.00;97771.41;4943744;28;20029;-45
2023/04/12 07:11:05;;;;;;;;;;;;;;;10.92;100.00;97784.38;4943256;28;19976;-45
2023/04/12 07:13:30;;;;;;;;;;;;;;;11.07;100.00;97770.69;4881566;28;1813168;-46
2023/04/12 07:15:55;;;;;;;;;;;;;;;11.33;100.00;97755.56;4945618;28;19925;-45
2023/04/12 07:18:20;;;;;;;;;;;;;;;11.02;100.00;97736.63;4944396;28;20105;-45
2023/04/12 07:20:46;;;;;;;;;;;;;;;11.26;100.00;97727.53;4935274;28;19922;-44
2023/04/12 07:23:12;;;;;;;;;;;;;;;10.61;100.00;97739.66;4944359;28;20271;-47
2023/04/12 07:25:37;;;;;;;;;;;;;;;10.76;100.00;97767.16;4943368;28;20005;-46
2023/04/12 07:28:03;;;;;;;;;;;;;;;11.35;100.00;97779.50;4944000;28;19922;-45
2023/04/12 07:30:28;;;;;;;;;;;;;;;11.60;100.00;97745.47;4942582;28;19923;-46
2023/04/12 07:32:53;;;;;;;;;;;;;;;10.79;100.00;97718.09;4945466;28;19973;-46
2023/04/12 07:35:19;;;;;;;;;;;;;;;11.49;100.00;97758.94;4944290;28;20288;-45
2023/04/12 07:37:45;;;;;;;;;;;;;;;11.49;100.00;97743.47;4944305;28;19919;-45
2023/04/12 07:40:10;;;;;;;;;;;;;;;10.99;100.00;97757.38;4944284;28;19930;-46
2023/04/12 07:42:35;;;;;;;;;;;;;;;10.75;100.00;97770.66;4944787;28;20149;-45
2023/04/12 07:45:00;;;;;;;;;;;;;;;11.57;100.00;97774.84;4945542;28;19922;-46
2023/04/12 07:47:26;;;;;;;;;;;;;;;11.15;100.00;97771.09;4942527;28;20338;-46
2023/04/12 07:49:51;;;;;;;;;;;;;;;11.08;100.00;97782.66;4945155;28;20338;-45
2023/04/12 07:52:16;;;;;;;;;;;;;;;11.30;100.00;97782.34;4944576;28;19922;-45
2023/04/12 07:54:41;;;;;;;;;;;;;;;11.94;100.00;97780.53;4943743;28;20005;-46
2023/04/12 07:57:07;;;;;;;;;;;;;;;11.06;100.00;97727.78;4943845;28;20080;-45
2023/04/12 07:59:33;;;;;;;;;;;;;;;11.85;100.00;97734.59;4944505;28;19929;-46
2023/04/12 08:01:58;;;;;;;;;;;;;;;11.50;100.00;97721.94;4944424;28;19922;-46
2023/04/12 08:04:24;;;;;;;;;;;;;;;11.85;100.00;97703.63;4945554;28;19973;-46
2023/04/12 08:06:49;;;;;;;;;;;;;;;12.00;100.00;97695.03;4945130;28;20754;-46
2023/04/12 08:09:14;;;;;;;;;;;;;;;12.21;100.00;97677.44;4942858;28;19925;-46
2023/04/12 08:11:39;;;;;;;;;;;;;;;11.82;100.00;97665.13;4944484;28;19925;-47
2023/04/12 08:14:05;;;;;;;;;;;;;;;12.50;100.00;97652.44;4943796;28;19934;-46
2023/04/12 08:16:31;;;;;;;;;;;;;;;11.88;100.00;97613.19;4943964;28;19919;-45
2023/04/12 08:18:56;;;;;;;;;;;;;;;12.33;100.00;97608.75;4942716;28;19987;-45
2023/04/12 08:21:22;;;;;;;;;;;;;;;12.57;100.00;97590.91;4943720;28;19919;-45
2023/04/12 08:23:49;;;;;;;;;;;;;;;11.59;100.00;97565.91;4942835;28;19968;-46
2023/04/12 08:26:14;;;;;;;;;;;;;;;12.06;100.00;97575.13;4942592;28;19917;-45
2023/04/12 08:28:40;;;;;;;;;;;;;;;11.92;100.00;97555.34;4943269;28;19914;-46
2023/04/12 08:31:06;;;;;;;;;;;;;;;12.27;100.00;97536.84;4944474;28;19918;-46
2023/04/12 08:33:31;;;;;;;;;;;;;;;12.32;100.00;97529.66;4941176;28;19945;-46
2023/04/12 08:35:56;;;;;;;;;;;;;;;12.76;100.00;97533.75;4943811;28;19918;-46
2023/04/12 08:38:22;;;;;;;;;;;;;;;11.47;100.00;97478.06;4942332;28;19969;-45
2023/04/12 08:40:47;;;;;;;;;;;;;;;11.89;100.00;97519.41;4943205;28;20383;-46
2023/04/12 08:43:12;;;;;;;;;;;;;;;12.29;100.00;97504.03;4934428;28;20175;-47
2023/04/12 08:45:38;;;;;;;;;;;;;;;11.77;100.00;97495.16;4935352;28;20013;-46
2023/04/12 08:48:03;;;;;;;;;;;;;;;12.54;100.00;97500.72;4942829;28;19957;-45
2023/04/12 08:50:28;;;;;;;;;;;;;;;12.62;100.00;97490.72;4943653;28;19928;-46
2023/04/12 08:52:54;;;;;;;;;;;;;;;13.16;100.00;97469.94;4942956;28;19927;-46
2023/04/12 08:55:19;;;;;;;;;;;;;;;12.71;100.00;97455.75;4941556;28;20026;-45
2023/04/12 08:57:44;;;;;;;;;;;;;;;12.88;100.00;97445.09;4942436;28;19972;-46
2023/04/12 09:00:11;;;;;;;;;;;;;;;13.50;100.00;97447.00;4941946;28;20304;-46
2023/04/12 09:02:37;;;;;;;;;;;;;;;13.60;100.00;97414.41;4943662;28;19983;-46
2023/04/12 09:05:02;;;;;;;;;;;;;;;13.74;100.00;97394.50;4943866;28;19932;-46
2023/04/12 09:07:29;;;;;;;;;;;;;;;14.11;100.00;97343.50;4943005;28;19918;-46
2023/04/12 09:09:55;;;;;;;;;;;;;;;13.62;100.00;97292.72;4941243;28;19965;-45
2023/04/12 09:12:22;;;;;;;;;;;;;;;14.36;100.00;97295.91;4941682;28;20015;-45
2023/04/12 09:14:48;;;;;;;;;;;;;;;14.01;100.00;97281.22;4942246;28;20081;-46
2023/04/12 09:17:20;;;;;;;;;;;;;;;14.21;100.00;97272.00;4939507;28;19926;-45
2023/04/12 09:19:45;;;;;;;;;;;;;;;14.42;100.00;97238.47;4939779;28;19922;-46
2023/04/12 09:22:10;;;;;;;;;;;;;;;14.30;100.00;97225.63;4940572;28;19922;-46
2023/04/12 09:24:46;;;;;;;;;;;;;;;14.36;100.00;97205.28;4941575;28;19929;-46
2023/04/12 09:27:11;;;;;;;;;;;;;;;14.21;100.00;97168.44;4942532;28;20434;-47
2023/04/12 09:29:36;;;;;;;;;;;;;;;14.08;100.00;97183.25;4940484;28;20084;-47
2023/04/12 09:32:01;;;;;;;;;;;;;;;15.18;100.00;97173.88;4942243;28;20312;-46
2023/04/12 09:34:27;;;;;;;;;;;;;;;14.62;100.00;97124.78;4942290;28;19923;-46
2023/04/12 09:36:52;;;;;;;;;;;;;;;15.35;100.00;97137.97;4945990;28;19932;-46
2023/04/12 09:39:18;;;;;;;;;;;;;;;16.25;100.00;97112.31;4945742;28;19945;-47
2023/04/12 09:41:43;;;;;;;;;;;;;;;15.77;100.00;97099.91;4945114;28;19965;-46
2023/04/12 09:44:09;;;;;;;;;;;;;;;14.40;100.00;97104.88;4945965;28;19937;-46
2023/04/12 09:46:35;;;;;;;;;;;;;;;15.06;100.00;97128.19;4943991;28;19937;-46
2023/04/12 09:49:02;;;;;;;;;;;;;;;14.56;100.00;97136.44;4944671;28;19922;-47
2023/04/12 09:51:31;;;;;;;;;;;;;;;15.12;100.00;97127.72;4945909;28;20029;-46
2023/04/12 09:53:58;;;;;;;;;;;;;;;14.85;100.00;97125.56;4945361;28;19919;-48
2023/04/12 09:56:23;;;;;;;;;;;;;;;16.25;100.00;97108.88;4941317;28;19945;-47
2023/04/12 09:58:50;;;;;;;;;;;;;;;15.79;100.00;97116.19;4944584;28;19922;-47
2023/04/12 10:01:15;;;;;;;;;;;;;;;16.14;100.00;97115.00;4943782;28;19987;-46
2023/04/12 10:03:41;;;;;;;;;;;;;;;16.39;100.00;97103.31;4945002;28;20473;-47
2023/04/12 10:06:06;;;;;;;;;;;;;;;15.86;100.00;97070.59;4947177;28;19927;-46
2023/04/12 10:08:31;;;;;;;;;;;;;;;16.24;100.00;97084.69;4945079;28;19949;-46
2023/04/12 10:10:57;;;;;;;;;;;;;;;15.89;100.00;97085.91;4949222;28;20009;-48
2023/04/12 10:13:22;;;;;;;;;;;;;;;16.39;100.00;97066.13;4940909;28;20545;-46
2023/04/12 10:15:48;;;;;;;;;;;;;;;17.02;100.00;97048.47;4948215;28;20362;-47
2023/04/12 10:18:13;;;;;;;;;;;;;;;15.92;100.00;97042.47;4948284;28;19961;-47
2023/04/12 10:20:39;;;;;;;;;;;;;;;16.01;100.00;97055.50;4947693;28;19977;-47
2023/04/12 10:23:04;;;;;;;;;;;;;;;15.40;100.00;97071.81;4949596;28;19976;-47
2023/04/12 10:25:30;;;;;;;;;;;;;;;15.06;100.00;97077.16;4948469;28;19954;-47
2023/04/12 10:27:55;;;;;;;;;;;;;;;15.70;100.00;97090.97;4947553;28;19953;-47
2023/04/12 10:30:25;;;;;;;;;;;;;;;16.56;100.00;97068.09;4946868;28;19926;-47
2023/04/12 10:33:03;;;;;;;;;;;;;;;16.71;100.00;97066.75;4947508;28;20902;-47
2023/04/12 10:35:49;;;;;;;;;;;;;;;17.52;100.00;97034.44;4947812;28;19922;-48
2023/04/12 10:38:14;;;;;;;;;;;;;;;17.09;100.00;97054.75;4947167;28;19933;-47
2023/04/12 10:40:59;;;;;;;;;;;;;;;17.46;100.00;97038.41;4948619;28;19922;-47
2023/04/12 10:43:28;;;;;;;;;;;;;;;16.65;100.00;97040.47;4947598;28;20301;-47
2023/04/12 10:45:54;;;;;;;;;;;;;;;16.41;100.00;97051.25;4945665;28;19926;-47
2023/04/12 10:48:34;;;;;;;;;;;;;;;16.96;100.00;97067.19;4948288;28;19919;-47
2023/04/12 10:51:16;;;;;;;;;;;;;;;15.76;100.00;97090.50;4947211;28;19953;-47
2023/04/12 10:53:42;;;;;;;;;;;;;;;17.94;100.00;97081.72;4946369;28;20975;-47
2023/04/12 10:56:26;;;;;;;;;;;;;;;16.65;100.00;97075.09;4949269;28;19953;-48
2023/04/12 10:58:51;;;;;;;;;;;;;;;17.45;100.00;97048.97;4946085;28;19974;-46
2023/04/12 11:01:17;;;;;;;;;;;;;;;16.96;100.00;97043.81;4947791;28;19922;-47
2023/04/12 11:04:09;;;;;;;;;;;;;;;17.61;100.00;97022.34;4947276;28;19922;-46
2023/04/12 11:06:51;;;;;;;;;;;;;;;18.15;100.00;97011.19;4946610;28;19930;-47
2023/04/12 11:09:24;;;;;;;;;;;;;;;16.59;100.00;97023.66;4943282;28;19968;-47
2023/04/12 11:12:10;;;;;;;;;;;;;;;17.19;100.00;97053.94;4946415;28;19960;-47
2023/04/12 11:14:37;;;;;;;;;;;;;;;18.63;100.00;97009.22;4948498;28;20008;-47
2023/04/12 11:17:06;;;;;;;;;;;;;;;17.68;100.00;97013.03;4944746;28;19969;-47
2023/04/12 11:19:31;;;;;;;;;;;;;;;18.58;100.00;96986.22;4945061;28;19969;-48
2023/04/12 11:21:58;;;;;;;;;;;;;;;17.75;100.00;96975.03;4946133;28;20676;-49
2023/04/12 11:24:23;;;;;;;;;;;;;;;17.49;100.00;97004.31;4947096;28;19929;-47
2023/04/12 11:26:48;;;;;;;;;;;;;;;18.78;100.00;96992.13;4947184;28;19925;-47
2023/04/12 11:29:15;;;;;;;;;;;;;;;17.96;100.00;97006.88;4944239;28;19926;-46
2023/04/12 11:31:40;;;;;;;;;;;;;;;18.24;100.00;96967.78;4949448;28;20473;-47
2023/04/12 11:34:06;;;;;;;;;;;;;;;18.18;100.00;96971.81;4947193;28;19973;-48
2023/04/12 11:36:31;;;;;;;;;;;;;;;18.91;100.00;96972.69;4947778;28;19922;-47
2023/04/12 11:38:56;;;;;;;;;;;;;;;18.64;100.00;96963.13;4946679;28;19919;-49
2023/04/12 11:41:22;;;;;;;;;;;;;;;18.05;100.00;96984.38;4944861;28;20047;-47
2023/04/12 11:43:47;;;;;;;;;;;;;;;19.19;100.00;96942.88;4946734;28;20453;-46
2023/04/12 11:46:14;;;;;;;;;;;;;;;17.68;100.00;96951.34;4944398;28;20431;-50
2023/04/12 11:48:39;;;;;;;;;;;;;;;18.62;100.00;96960.66;4947302;28;19961;-47
2023/04/12 11:51:18;;;;;;;;;;;;;;;17.80;100.00;96961.59;4945404;28;19958;-48
2023/04/12 11:53:44;;;;;;;;;;;;;;;17.21;100.00;97008.59;4944229;28;19922;-47
2023/04/12 11:56:09;;;;;;;;;;;;;;;18.38;100.00;96995.13;4946463;28;19922;-47
2023/04/12 11:58:34;;;;;;;;;;;;;;;15.83;100.00;97047.50;4948691;28;20282;-47
2023/04/12 12:00:59;;;;;;;;;;;;;;;18.98;100.00;97002.41;4946613;28;20740;-48
2023/04/12 12:03:25;;;;;;;;;;;;;;;17.96;100.00;96991.25;4946786;28;20341;-47
2023/04/12 12:05:50;;;;;;;;;;;;;;;19.00;100.00;96969.16;4946836;28;19926;-47
2023/04/12 12:08:15;;;;;;;;;;;;;;;19.46;100.00;96933.25;4945304;28;19915;-48
2023/04/12 12:10:41;;;;;;;;;;;;;;;17.49;100.00;96970.47;4945467;28;20606;-47
2023/04/12 12:13:10;;;;;;;;;;;;;;;18.41;100.00;96983.63;4945411;28;20365;-47
2023/04/12 12:15:35;;;;;;;;;;;;;;;18.27;100.00;96993.56;4946830;28;19915;-47
2023/04/12 12:18:03;;;;;;;;;;;;;;;17.86;100.00;96990.50;4945327;28;19922;-46
2023/04/12 12:20:28;;;;;;;;;;;;;;;17.97;100.00;96982.50;4945820;28;19919;-47
2023/04/12 12:22:53;;;;;;;;;;;;;;;16.81;100.00;97039.97;4946095;28;19932;-48
2023/04/12 12:25:19;;;;;;;;;;;;;;;18.20;100.00;97021.19;4946496;28;19969;-48
2023/04/12 12:27:47;;;;;;;;;;;;;;;19.10;100.00;96975.09;4945520;28;20009;-48
2023/04/12 12:30:13;;;;;;;;;;;;;;;18.77;100.00;96971.41;4947536;28;19975;-47
2023/04/12 12:32:38;;;;;;;;;;;;;;;19.08;100.00;96964.00;4944282;28;19957;-48